sensor_id;sensor_type;location;lat;lon;timestamp;pressure;altitude;pressure_sealevel;temperature;humidity
56514;BME280;62152;52.078;8.414;2023-10-31T00:01:42;97986.38;;;19.09;60.12
56514;BME280;62152;52.078;8.414;2023-10-31T00:05:43;97983.22;;;19.11;60.18
56514;BME280;62152;52.078;8.414;2023-10-31T00:09:43;97980.47;;;19.11;60.12
56514;BME280;62152;52.078;8.414;2023-10-31T00:13:47;97982.44;;;19.10;60.25
56514;BME280;62152;52.078;8.414;2023-10-31T00:17:47;97988.69;;;19.11;60.15
56514;BME280;62152;52.078;8.414;2023-10-31T00:21:48;97994.19;;;19.11;60.29
56514;BME280;62152;52.078;8.414;2023-10-31T00:25:49;97980.13;;;19.09;60.10
56514;BME280;62152;52.078;8.414;2023-10-31T00:29:52;97969.13;;;19.09;60.42
56514;BME280;62152;52.078;8.414;2023-10-31T00:33:54;97967.59;;;19.08;60.38
56514;BME280;62152;52.078;8.414;2023-10-31T00:37:54;97964.75;;;19.11;60.16
56514;BME280;62152;52.078;8.414;2023-10-31T00:41:55;97963.19;;;19.10;60.32
56514;BME280;62152;52.078;8.414;2023-10-31T00:45:59;97977.72;;;19.11;60.33
56514;BME280;62152;52.078;8.414;2023-10-31T00:50:00;97975.41;;;19.09;60.42
56514;BME280;62152;52.078;8.414;2023-10-31T00:54:00;97975.41;;;19.09;60.38
56514;BME280;62152;52.078;8.414;2023-10-31T00:58:01;97970.66;;;19.10;60.31
56514;BME280;62152;52.078;8.414;2023-10-31T01:02:05;97972.22;;;19.11;60.40
56514;BME280;62152;52.078;8.414;2023-10-31T01:06:06;97962.88;;;19.08;60.06
56514;BME280;62152;52.078;8.414;2023-10-31T01:10:08;97956.16;;;19.09;60.31
56514;BME280;62152;52.078;8.414;2023-10-31T01:14:09;97955.41;;;19.09;60.24
56514;BME280;62152;52.078;8.414;2023-10-31T01:18:12;97952.66;;;19.09;60.18
56514;BME280;62152;52.078;8.414;2023-10-31T01:22:13;97953.41;;;19.09;60.36
56514;BME280;62152;52.078;8.414;2023-10-31T01:26:14;97929.91;;;19.08;60.29
56514;BME280;62152;52.078;8.414;2023-10-31T01:30:15;97936.56;;;19.07;60.33
56514;BME280;62152;52.078;8.414;2023-10-31T01:34:18;97935.38;;;19.08;60.37
56514;BME280;62152;52.078;8.414;2023-10-31T01:38:19;97938.53;;;19.07;60.14
56514;BME280;62152;52.078;8.414;2023-10-31T01:42:20;97957.38;;;19.08;60.38
56514;BME280;62152;52.078;8.414;2023-10-31T01:46:21;97950.22;;;19.11;60.39
56514;BME280;62152;52.078;8.414;2023-10-31T01:50:25;97947.91;;;19.09;60.38
56514;BME280;62152;52.078;8.414;2023-10-31T01:54:26;97946.38;;;19.08;60.45
56514;BME280;62152;52.078;8.414;2023-10-31T01:58:30;97950.22;;;19.11;60.24
56514;BME280;62152;52.078;8.414;2023-10-31T02:02:34;97954.53;;;19.12;60.36
56514;BME280;62152;52.078;8.414;2023-10-31T02:06:39;97948.25;;;19.11;60.36
56514;BME280;62152;52.078;8.414;2023-10-31T02:10:40;97976.16;;;19.10;60.28
56514;BME280;62152;52.078;8.414;2023-10-31T02:14:40;97977.72;;;19.11;60.35
56514;BME280;62152;52.078;8.414;2023-10-31T02:18:42;97967.94;;;19.10;60.28
56514;BME280;62152;52.078;8.414;2023-10-31T02:22:46;97968.69;;;19.10;60.13
56514;BME280;62152;52.078;8.414;2023-10-31T02:26:47;97970.66;;;19.10;60.28
56514;BME280;62152;52.078;8.414;2023-10-31T02:30:47;97979.25;;;19.12;60.38
56514;BME280;62152;52.078;8.414;2023-10-31T02:34:49;97971.09;;;19.08;60.19
56514;BME280;62152;52.078;8.414;2023-10-31T02:38:53;97985.63;;;19.09;60.27
56514;BME280;62152;52.078;8.414;2023-10-31T02:42:53;97964.84;;;19.08;60.38
56514;BME280;62152;52.078;8.414;2023-10-31T02:46:54;97976.16;;;19.10;60.38
56514;BME280;62152;52.078;8.414;2023-10-31T02:50:55;97990.75;;;19.07;60.19
56514;BME280;62152;52.078;8.414;2023-10-31T02:54:58;97984.06;;;19.08;60.46
56514;BME280;62152;52.078;8.414;2023-10-31T02:58:59;98002.50;;;19.07;60.20
56514;BME280;62152;52.078;8.414;2023-10-31T03:03:00;97990.75;;;19.07;60.38
56514;BME280;62152;52.078;8.414;2023-10-31T03:07:01;98008.81;;;19.08;60.25
56514;BME280;62152;52.078;8.414;2023-10-31T03:11:05;98018.66;;;19.05;60.32
56514;BME280;62152;52.078;8.414;2023-10-31T03:15:07;98017.81;;;19.08;60.05
56514;BME280;62152;52.078;8.414;2023-10-31T03:19:08;98023.38;;;19.05;60.48
56514;BME280;62152;52.078;8.414;2023-10-31T03:23:09;98045.28;;;19.08;60.13
56514;BME280;62152;52.078;8.414;2023-10-31T03:27:13;98062.94;;;19.07;60.08
56514;BME280;62152;52.078;8.414;2023-10-31T03:31:14;98055.56;;;19.04;60.40
56514;BME280;62152;52.078;8.414;2023-10-31T03:35:15;98051.19;;;19.07;60.26
56514;BME280;62152;52.078;8.414;2023-10-31T03:39:16;98081.41;;;19.07;60.10
56514;BME280;62152;52.078;8.414;2023-10-31T03:43:19;98067.31;;;19.05;60.02
56514;BME280;62152;52.078;8.414;2023-10-31T03:47:21;98074.03;;;19.04;60.28
56514;BME280;62152;52.078;8.414;2023-10-31T03:51:21;98085.00;;;19.04;60.29
56514;BME280;62152;52.078;8.414;2023-10-31T03:55:22;98075.22;;;19.03;60.22
56514;BME280;62152;52.078;8.414;2023-10-31T03:59:26;98081.50;;;19.03;60.21
56514;BME280;62152;52.078;8.414;2023-10-31T04:03:27;98089.38;;;19.01;60.00
56514;BME280;62152;52.078;8.414;2023-10-31T04:07:28;98086.22;;;19.03;60.18
56514;BME280;62152;52.078;8.414;2023-10-31T04:11:28;98098.75;;;19.04;60.13
56514;BME280;62152;52.078;8.414;2023-10-31T04:15:32;98103.47;;;19.03;59.99
56514;BME280;62152;52.078;8.414;2023-10-31T04:19:33;98107.81;;;19.01;60.17
56514;BME280;62152;52.078;8.414;2023-10-31T04:23:33;98116.44;;;19.03;59.91
56514;BME280;62152;52.078;8.414;2023-10-31T04:27:34;98120.66;;;19.07;60.15
56514;BME280;62152;52.078;8.414;2023-10-31T04:31:38;98123.41;;;19.07;60.19
56514;BME280;62152;52.078;8.414;2023-10-31T04:35:38;98128.50;;;19.09;60.24
56514;BME280;62152;52.078;8.414;2023-10-31T04:39:39;98141.50;;;19.05;60.38
56514;BME280;62152;52.078;8.414;2023-10-31T04:43:40;98139.97;;;19.04;60.46
56514;BME280;62152;52.078;8.414;2023-10-31T04:47:44;98157.22;;;19.04;60.39
56514;BME280;62152;52.078;8.414;2023-10-31T04:51:44;98150.59;;;19.02;60.24
56514;BME280;62152;52.078;8.414;2023-10-31T04:55:46;98172.97;;;19.00;60.28
56514;BME280;62152;52.078;8.414;2023-10-31T04:59:47;98166.31;;;19.01;60.12
56514;BME280;62152;52.078;8.414;2023-10-31T05:03:50;98185.47;;;17.43;58.79
56514;BME280;62152;52.078;8.414;2023-10-31T05:07:51;98197.38;;;16.95;58.44
56514;BME280;62152;52.078;8.414;2023-10-31T05:11:52;98187.34;;;17.15;58.17
56514;BME280;62152;52.078;8.414;2023-10-31T05:15:53;98205.13;;;18.29;57.48
56514;BME280;62152;52.078;8.414;2023-10-31T05:19:57;98196.22;;;18.49;56.75
56514;BME280;62152;52.078;8.414;2023-10-31T05:23:57;98208.16;;;18.62;56.81
56514;BME280;62152;52.078;8.414;2023-10-31T05:27:58;98211.13;;;18.75;56.55
56514;BME280;62152;52.078;8.414;2023-10-31T05:32:00;98213.38;;;18.80;56.34
56514;BME280;62152;52.078;8.414;2023-10-31T05:36:04;98211.00;;;18.82;56.50
56514;BME280;62152;52.078;8.414;2023-10-31T05:40:07;98214.16;;;18.80;56.72
56514;BME280;62152;52.078;8.414;2023-10-31T05:44:07;98220.00;;;18.82;57.00
56514;BME280;62152;52.078;8.414;2023-10-31T05:48:08;98225.16;;;18.80;57.15
56514;BME280;62152;52.078;8.414;2023-10-31T05:52:12;98234.53;;;18.83;57.06
56514;BME280;62152;52.078;8.414;2023-10-31T05:56:14;98241.56;;;18.84;57.28
56514;BME280;62152;52.078;8.414;2023-10-31T06:00:15;98235.63;;;18.85;57.38
56514;BME280;62152;52.078;8.414;2023-10-31T06:04:16;98236.50;;;18.82;57.39
56514;BME280;62152;52.078;8.414;2023-10-31T06:08:20;98245.84;;;18.85;57.58
56514;BME280;62152;52.078;8.414;2023-10-31T06:12:20;98244.31;;;18.84;57.71
56514;BME280;62152;52.078;8.414;2023-10-31T06:16:21;98243.88;;;18.85;57.54
56514;BME280;62152;52.078;8.414;2023-10-31T06:20:22;98245.16;;;18.81;57.99
56514;BME280;62152;52.078;8.414;2023-10-31T06:24:25;98247.47;;;18.82;57.93
56514;BME280;62152;52.078;8.414;2023-10-31T06:28:26;98247.06;;;18.84;57.84
56514;BME280;62152;52.078;8.414;2023-10-31T06:32:27;98263.53;;;18.84;57.99
56514;BME280;62152;52.078;8.414;2023-10-31T06:36:28;98258.47;;;18.82;57.99
56514;BME280;62152;52.078;8.414;2023-10-31T06:40:31;98270.56;;;18.85;58.09
56514;BME280;62152;52.078;8.414;2023-10-31T06:44:32;98264.66;;;18.86;57.97
56514;BME280;62152;52.078;8.414;2023-10-31T06:48:33;98275.66;;;18.86;58.18
56514;BME280;62152;52.078;8.414;2023-10-31T06:52:34;98278.38;;;18.86;58.23
56514;BME280;62152;52.078;8.414;2023-10-31T06:56:37;98282.72;;;18.88;58.17
56514;BME280;62152;52.078;8.414;2023-10-31T07:00:38;98297.69;;;18.83;58.37
56514;BME280;62152;52.078;8.414;2023-10-31T07:04:39;98309.44;;;18.83;58.34
56514;BME280;62152;52.078;8.414;2023-10-31T07:08:39;98318.47;;;18.84;58.40
56514;BME280;62152;52.078;8.414;2023-10-31T07:12:43;98319.25;;;18.84;58.32
56514;BME280;62152;52.078;8.414;2023-10-31T07:16:44;98328.69;;;18.83;58.31
56514;BME280;62152;52.078;8.414;2023-10-31T07:20:44;98330.66;;;18.83;58.16
56514;BME280;62152;52.078;8.414;2023-10-31T07:24:45;98336.91;;;18.83;58.34
56514;BME280;62152;52.078;8.414;2023-10-31T07:28:48;98345.91;;;18.88;58.22
56514;BME280;62152;52.078;8.414;2023-10-31T07:32:49;98344.75;;;18.85;58.25
56514;BME280;62152;52.078;8.414;2023-10-31T07:36:50;98350.66;;;18.83;58.32
56514;BME280;62152;52.078;8.414;2023-10-31T07:40:51;98358.13;;;18.83;58.60
56514;BME280;62152;52.078;8.414;2023-10-31T07:44:54;98366.66;;;18.89;58.29
56514;BME280;62152;52.078;8.414;2023-10-31T07:48:55;98364.38;;;18.83;58.42
56514;BME280;62152;52.078;8.414;2023-10-31T07:52:56;98369.41;;;18.89;58.40
56514;BME280;62152;52.078;8.414;2023-10-31T07:56:56;98362.38;;;18.88;58.33
56514;BME280;62152;52.078;8.414;2023-10-31T08:01:00;98366.66;;;18.89;58.34
56514;BME280;62152;52.078;8.414;2023-10-31T08:05:01;98369.41;;;18.89;58.43
56514;BME280;62152;52.078;8.414;2023-10-31T08:09:02;98382.38;;;18.88;58.37
56514;BME280;62152;52.078;8.414;2023-10-31T08:13:03;98390.19;;;18.90;58.46
56514;BME280;62152;52.078;8.414;2023-10-31T08:17:06;98395.34;;;18.88;58.33
56514;BME280;62152;52.078;8.414;2023-10-31T08:21:07;98391.41;;;18.89;58.41
56514;BME280;62152;52.078;8.414;2023-10-31T08:25:08;98399.63;;;18.89;58.51
56514;BME280;62152;52.078;8.414;2023-10-31T08:29:09;98396.81;;;18.92;58.39
56514;BME280;62152;52.078;8.414;2023-10-31T08:33:12;98409.00;;;18.91;58.33
56514;BME280;62152;52.078;8.414;2023-10-31T08:37:13;98420.00;;;18.91;58.31
56514;BME280;62152;52.078;8.414;2023-10-31T08:41:14;98418.38;;;18.94;58.31
56514;BME280;62152;52.078;8.414;2023-10-31T08:45:14;98429.78;;;18.92;58.26
56514;BME280;62152;52.078;8.414;2023-10-31T08:49:18;98440.34;;;18.94;58.50
56514;BME280;62152;52.078;8.414;2023-10-31T08:53:19;98439.59;;;18.93;58.42
56514;BME280;62152;52.078;8.414;2023-10-31T08:57:19;98445.84;;;18.94;58.48
56514;BME280;62152;52.078;8.414;2023-10-31T09:01:20;98463.91;;;18.95;58.45
56514;BME280;62152;52.078;8.414;2023-10-31T09:05:24;98466.66;;;18.95;58.28
56514;BME280;62152;52.078;8.414;2023-10-31T09:09:24;98478.81;;;18.94;58.47
56514;BME280;62152;52.078;8.414;2023-10-31T09:13:25;98465.09;;;18.94;58.55
56514;BME280;62152;52.078;8.414;2023-10-31T09:17:26;98466.28;;;18.93;58.34
56514;BME280;62152;52.078;8.414;2023-10-31T09:21:29;98484.72;;;18.92;58.36
56514;BME280;62152;52.078;8.414;2023-10-31T09:25:30;98485.50;;;18.93;58.40
56514;BME280;62152;52.078;8.414;2023-10-31T09:29:31;98482.75;;;18.93;58.50
56514;BME280;62152;52.078;8.414;2023-10-31T09:33:32;98492.19;;;18.92;58.30
56514;BME280;62152;52.078;8.414;2023-10-31T09:37:35;98494.13;;;18.95;58.27
56514;BME280;62152;52.078;8.414;2023-10-31T09:41:36;98511.75;;;18.97;58.17
56514;BME280;62152;52.078;8.414;2023-10-31T09:45:37;98524.34;;;18.95;58.31
56514;BME280;62152;52.078;8.414;2023-10-31T09:49:38;98533.75;;;18.94;58.58
56514;BME280;62152;52.078;8.414;2023-10-31T09:53:44;98529.06;;;18.94;58.44
56514;BME280;62152;52.078;8.414;2023-10-31T09:57:45;98536.94;;;18.92;58.39
56514;BME280;62152;52.078;8.414;2023-10-31T10:01:46;98544.75;;;18.94;58.36
56514;BME280;62152;52.078;8.414;2023-10-31T10:05:49;98551.06;;;18.94;58.48
56514;BME280;62152;52.078;8.414;2023-10-31T10:09:52;98562.06;;;18.91;58.63
56514;BME280;62152;52.078;8.414;2023-10-31T10:13:53;98575.81;;;18.91;58.46
56514;BME280;62152;52.078;8.414;2023-10-31T10:17:54;98582.06;;;18.91;58.68
56514;BME280;62152;52.078;8.414;2023-10-31T10:21:57;98595.03;;;18.91;58.65
56514;BME280;62152;52.078;8.414;2023-10-31T10:26:02;98593.84;;;18.92;58.64
56514;BME280;62152;52.078;8.414;2023-10-31T10:30:04;98599.34;;;18.92;58.45
56514;BME280;62152;52.078;8.414;2023-10-31T10:34:05;98600.53;;;18.91;58.58
56514;BME280;62152;52.078;8.414;2023-10-31T10:38:14;98612.72;;;18.90;58.60
56514;BME280;62152;52.078;8.414;2023-10-31T10:42:24;98613.50;;;18.86;58.80
56514;BME280;62152;52.078;8.414;2023-10-31T10:46:33;98614.69;;;18.89;58.66
56514;BME280;62152;52.078;8.414;2023-10-31T10:50:41;98625.66;;;18.89;58.60
56514;BME280;62152;52.078;8.414;2023-10-31T10:54:45;98626.03;;;18.91;58.56
56514;BME280;62152;52.078;8.414;2023-10-31T10:59:00;98638.63;;;18.89;58.72
56514;BME280;62152;52.078;8.414;2023-10-31T11:03:03;98635.06;;;18.92;58.70
56514;BME280;62152;52.078;8.414;2023-10-31T11:07:05;98641.38;;;18.89;58.59
56514;BME280;62152;52.078;8.414;2023-10-31T11:11:06;98646.03;;;18.92;58.47
56514;BME280;62152;52.078;8.414;2023-10-31T11:15:13;98650.75;;;18.91;58.38
56514;BME280;62152;52.078;8.414;2023-10-31T11:19:16;98660.97;;;18.91;58.66
56514;BME280;62152;52.078;8.414;2023-10-31T11:23:17;98654.69;;;18.90;58.79
56514;BME280;62152;52.078;8.414;2023-10-31T11:27:18;98659.41;;;18.90;58.57
56514;BME280;62152;52.078;8.414;2023-10-31T11:31:21;98661.72;;;18.95;58.53
56514;BME280;62152;52.078;8.414;2023-10-31T11:35:22;98664.84;;;18.93;58.46
56514;BME280;62152;52.078;8.414;2023-10-31T11:39:23;98666.03;;;18.92;58.70
56514;BME280;62152;52.078;8.414;2023-10-31T11:43:24;98673.50;;;18.95;58.61
56514;BME280;62152;52.078;8.414;2023-10-31T11:47:45;98678.22;;;18.91;58.73
56514;BME280;62152;52.078;8.414;2023-10-31T11:51:46;98686.84;;;18.93;58.72
56514;BME280;62152;52.078;8.414;2023-10-31T11:55:47;98684.88;;;18.94;58.46
56514;BME280;62152;52.078;8.414;2023-10-31T11:59:48;98690.00;;;18.92;58.55
56514;BME280;62152;52.078;8.414;2023-10-31T12:03:51;98689.59;;;18.93;58.68
56514;BME280;62152;52.078;8.414;2023-10-31T12:07:53;98692.75;;;18.92;58.70
56514;BME280;62152;52.078;8.414;2023-10-31T12:11:53;98695.50;;;18.92;58.62
56514;BME280;62152;52.078;8.414;2023-10-31T12:15:54;98695.91;;;18.90;58.58
56514;BME280;62152;52.078;8.414;2023-10-31T12:19:58;98697.03;;;18.93;58.64
56514;BME280;62152;52.078;8.414;2023-10-31T12:24:04;98690.75;;;18.96;58.46
56514;BME280;62152;52.078;8.414;2023-10-31T12:28:05;98692.31;;;18.97;58.60
56514;BME280;62152;52.078;8.414;2023-10-31T12:32:12;98698.16;;;18.99;58.51
56514;BME280;62152;52.078;8.414;2023-10-31T12:36:15;98714.28;;;18.97;58.50
56514;BME280;62152;52.078;8.414;2023-10-31T12:40:18;98713.09;;;18.98;58.37
56514;BME280;62152;52.078;8.414;2023-10-31T12:44:23;98715.50;;;18.92;58.52
56514;BME280;62152;52.078;8.414;2023-10-31T12:48:24;98711.56;;;18.93;58.53
56514;BME280;62152;52.078;8.414;2023-10-31T12:52:45;98708.44;;;18.95;58.64
56514;BME280;62152;52.078;8.414;2023-10-31T12:56:46;98716.28;;;18.93;58.75
56514;BME280;62152;52.078;8.414;2023-10-31T13:00:47;98715.88;;;18.94;58.76
56514;BME280;62152;52.078;8.414;2023-10-31T13:04:48;98722.97;;;18.92;58.53
56514;BME280;62152;52.078;8.414;2023-10-31T13:08:51;98720.56;;;18.94;58.74
56514;BME280;62152;52.078;8.414;2023-10-31T13:12:53;98721.78;;;18.93;58.69
56514;BME280;62152;52.078;8.414;2023-10-31T13:16:54;98722.53;;;18.93;58.63
56514;BME280;62152;52.078;8.414;2023-10-31T13:20:55;98726.88;;;18.94;58.53
56514;BME280;62152;52.078;8.414;2023-10-31T13:24:58;98726.47;;;18.92;58.50
56514;BME280;62152;52.078;8.414;2023-10-31T13:28:59;98731.56;;;18.94;58.69
56514;BME280;62152;52.078;8.414;2023-10-31T13:33:00;98732.75;;;18.93;58.75
56514;BME280;62152;52.078;8.414;2023-10-31T13:37:01;98750.03;;;18.93;58.52
56514;BME280;62152;52.078;8.414;2023-10-31T13:41:04;98746.50;;;18.93;58.75
56514;BME280;62152;52.078;8.414;2023-10-31T13:45:06;98747.69;;;18.92;58.55
56514;BME280;62152;52.078;8.414;2023-10-31T13:49:07;98753.53;;;18.94;58.55
56514;BME280;62152;52.078;8.414;2023-10-31T13:53:07;98759.50;;;18.89;58.90
56514;BME280;62152;52.078;8.414;2023-10-31T13:57:11;98765.72;;;18.93;58.68
56514;BME280;62152;52.078;8.414;2023-10-31T14:01:12;98773.59;;;18.91;58.80
56514;BME280;62152;52.078;8.414;2023-10-31T14:05:13;98772.41;;;18.92;58.76
56514;BME280;62152;52.078;8.414;2023-10-31T14:09:14;98768.47;;;18.93;58.53
56514;BME280;62152;52.078;8.414;2023-10-31T14:13:17;98776.34;;;18.94;58.70
56514;BME280;62152;52.078;8.414;2023-10-31T14:17:18;98779.09;;;18.91;58.63
56514;BME280;62152;52.078;8.414;2023-10-31T14:21:19;98778.28;;;18.94;58.53
56514;BME280;62152;52.078;8.414;2023-10-31T14:25:19;98783.41;;;18.92;58.60
56514;BME280;62152;52.078;8.414;2023-10-31T14:29:23;98788.91;;;18.92;58.54
56514;BME280;62152;52.078;8.414;2023-10-31T14:33:24;98788.91;;;18.92;58.72
56514;BME280;62152;52.078;8.414;2023-10-31T14:37:24;98797.91;;;18.92;58.60
56514;BME280;62152;52.078;8.414;2023-10-31T14:41:25;98809.31;;;18.94;58.54
56514;BME280;62152;52.078;8.414;2023-10-31T14:45:29;98810.88;;;18.92;58.78
56514;BME280;62152;52.078;8.414;2023-10-31T14:49:29;98827.00;;;18.90;58.72
56514;BME280;62152;52.078;8.414;2023-10-31T14:53:30;98822.22;;;18.94;58.59
56514;BME280;62152;52.078;8.414;2023-10-31T14:57:31;98825.81;;;18.91;58.67
56514;BME280;62152;52.078;8.414;2023-10-31T15:01:34;98817.56;;;18.91;58.87
56514;BME280;62152;52.078;8.414;2023-10-31T15:05:35;98832.44;;;18.93;58.60
56514;BME280;62152;52.078;8.414;2023-10-31T15:09:36;98832.06;;;18.91;58.71
56514;BME280;62152;52.078;8.414;2023-10-31T15:13:37;98842.28;;;18.91;58.75
56514;BME280;62152;52.078;8.414;2023-10-31T15:17:40;98849.34;;;18.92;58.54
56514;BME280;62152;52.078;8.414;2023-10-31T15:21:41;98851.72;;;18.90;58.66
56514;BME280;62152;52.078;8.414;2023-10-31T15:25:42;98861.50;;;18.91;58.87
56514;BME280;62152;52.078;8.414;2023-10-31T15:29:43;98856.03;;;18.91;58.80
56514;BME280;62152;52.078;8.414;2023-10-31T15:33:46;98856.81;;;18.91;58.84
56514;BME280;62152;52.078;8.414;2023-10-31T15:37:47;98876.44;;;18.90;58.81
56514;BME280;62152;52.078;8.414;2023-10-31T15:41:48;98868.19;;;18.90;58.63
56514;BME280;62152;52.078;8.414;2023-10-31T15:45:49;98876.84;;;18.88;58.79
56514;BME280;62152;52.078;8.414;2023-10-31T15:49:52;98878.38;;;18.93;58.78
56514;BME280;62152;52.078;8.414;2023-10-31T15:53:53;98881.56;;;18.88;58.56
56514;BME280;62152;52.078;8.414;2023-10-31T15:57:54;98898.41;;;18.90;58.83
56514;BME280;62152;52.078;8.414;2023-10-31T16:01:57;98904.28;;;18.92;58.93
56514;BME280;62152;52.078;8.414;2023-10-31T16:06:01;98904.28;;;18.92;59.05
56514;BME280;62152;52.078;8.414;2023-10-31T16:10:02;98920.41;;;18.90;59.29
56514;BME280;62152;52.078;8.414;2023-10-31T16:14:02;98924.72;;;18.91;59.42
56514;BME280;62152;52.078;8.414;2023-10-31T16:18:03;98930.19;;;18.91;59.22
56514;BME280;62152;52.078;8.414;2023-10-31T16:22:07;98938.06;;;18.89;59.20
56514;BME280;62152;52.078;8.414;2023-10-31T16:26:07;98945.91;;;18.86;59.67
56514;BME280;62152;52.078;8.414;2023-10-31T16:30:10;98945.91;;;18.86;59.37
56514;BME280;62152;52.078;8.414;2023-10-31T16:34:11;98949.06;;;18.89;59.43
56514;BME280;62152;52.078;8.414;2023-10-31T16:38:14;98954.16;;;18.86;59.39
56514;BME280;62152;52.078;8.414;2023-10-31T16:42:15;98960.88;;;18.82;59.66
56514;BME280;62152;52.078;8.414;2023-10-31T16:46:16;98966.31;;;18.85;59.62
56514;BME280;62152;52.078;8.414;2023-10-31T16:50:17;98971.03;;;18.89;59.37
56514;BME280;62152;52.078;8.414;2023-10-31T16:54:20;98969.47;;;18.88;59.59
56514;BME280;62152;52.078;8.414;2023-10-31T16:58:21;98975.72;;;18.92;59.15
56514;BME280;62152;52.078;8.414;2023-10-31T17:02:22;98977.31;;;18.89;59.32
56514;BME280;62152;52.078;8.414;2023-10-31T17:06:22;98978.88;;;18.90;59.34
56514;BME280;62152;52.078;8.414;2023-10-31T17:10:26;98989.06;;;18.93;59.34
56514;BME280;62152;52.078;8.414;2023-10-31T17:14:26;98989.88;;;18.90;59.36
56514;BME280;62152;52.078;8.414;2023-10-31T17:18:27;98999.28;;;18.89;59.22
56514;BME280;62152;52.078;8.414;2023-10-31T17:22:28;99001.97;;;19.03;59.30
56514;BME280;62152;52.078;8.414;2023-10-31T17:26:32;99005.47;;;19.07;59.20
56514;BME280;62152;52.078;8.414;2023-10-31T17:30:33;99013.31;;;19.09;59.41
56514;BME280;62152;52.078;8.414;2023-10-31T17:34:33;99021.91;;;19.18;59.32
56514;BME280;62152;52.078;8.414;2023-10-31T17:38:34;99023.47;;;19.23;59.57
56514;BME280;62152;52.078;8.414;2023-10-31T17:42:38;99028.56;;;19.21;59.72
56514;BME280;62152;52.078;8.414;2023-10-31T17:46:38;99032.47;;;19.23;60.06
56514;BME280;62152;52.078;8.414;2023-10-31T17:50:39;99028.97;;;19.23;60.52
56514;BME280;62152;52.078;8.414;2023-10-31T17:54:40;99039.50;;;19.28;60.41
56514;BME280;62152;52.078;8.414;2023-10-31T17:58:43;99040.28;;;19.28;60.33
56514;BME280;62152;52.078;8.414;2023-10-31T18:02:45;99043.84;;;19.25;60.78
56514;BME280;62152;52.078;8.414;2023-10-31T18:06:46;99043.84;;;19.25;60.42
56514;BME280;62152;52.078;8.414;2023-10-31T18:10:47;99053.31;;;19.17;60.65
56514;BME280;62152;52.078;8.414;2023-10-31T18:14:50;99050.63;;;19.10;60.67
56514;BME280;62152;52.078;8.414;2023-10-31T18:18:51;99047.88;;;19.10;60.39
56514;BME280;62152;52.078;8.414;2023-10-31T18:22:52;99049.47;;;19.04;60.65
56514;BME280;62152;52.078;8.414;2023-10-31T18:26:53;99049.84;;;19.06;60.51
56514;BME280;62152;52.078;8.414;2023-10-31T18:30:56;99043.97;;;19.04;60.31
56514;BME280;62152;52.078;8.414;2023-10-31T18:34:57;99034.56;;;19.01;60.27
56514;BME280;62152;52.078;8.414;2023-10-31T18:38:58;99047.13;;;19.02;60.27
56514;BME280;62152;52.078;8.414;2023-10-31T18:42:59;99055.38;;;19.02;60.33
56514;BME280;62152;52.078;8.414;2023-10-31T18:47:02;99047.13;;;19.02;60.20
56514;BME280;62152;52.078;8.414;2023-10-31T18:51:04;99063.97;;;19.01;60.26
56514;BME280;62152;52.078;8.414;2023-10-31T18:55:06;99053.41;;;18.99;60.17
56514;BME280;62152;52.078;8.414;2023-10-31T18:59:07;99051.06;;;19.01;60.02
56514;BME280;62152;52.078;8.414;2023-10-31T19:03:10;99056.56;;;19.01;59.80
56514;BME280;62152;52.078;8.414;2023-10-31T19:07:11;99054.97;;;19.00;60.10
56514;BME280;62152;52.078;8.414;2023-10-31T19:11:12;99054.97;;;19.00;60.01
56514;BME280;62152;52.078;8.414;2023-10-31T19:15:13;99060.88;;;18.99;60.00
56514;BME280;62152;52.078;8.414;2023-10-31T19:19:16;99060.50;;;18.97;59.85
56514;BME280;62152;52.078;8.414;2023-10-31T19:23:17;99061.66;;;18.96;59.91
56514;BME280;62152;52.078;8.414;2023-10-31T19:27:18;99054.19;;;19.00;59.81
56514;BME280;62152;52.078;8.414;2023-10-31T19:31:19;99073.03;;;18.98;60.05
56514;BME280;62152;52.078;8.414;2023-10-31T19:35:22;99069.50;;;18.97;59.99
56514;BME280;62152;52.078;8.414;2023-10-31T19:39:23;99080.50;;;18.97;59.81
56514;BME280;62152;52.078;8.414;2023-10-31T19:43:24;99079.72;;;18.97;59.88
56514;BME280;62152;52.078;8.414;2023-10-31T19:47:25;99075.78;;;18.98;59.89
56514;BME280;62152;52.078;8.414;2023-10-31T19:51:28;99091.03;;;19.17;59.95
56514;BME280;62152;52.078;8.414;2023-10-31T19:55:29;99084.72;;;19.23;60.25
56514;BME280;62152;52.078;8.414;2023-10-31T19:59:30;99076.81;;;19.32;60.38
56514;BME280;62152;52.078;8.414;2023-10-31T20:03:31;99079.19;;;19.30;60.57
56514;BME280;62152;52.078;8.414;2023-10-31T20:07:34;99078.41;;;19.30;60.48
56514;BME280;62152;52.078;8.414;2023-10-31T20:11:35;99070.13;;;19.33;60.79
56514;BME280;62152;52.078;8.414;2023-10-31T20:15:36;99081.50;;;19.35;60.87
56514;BME280;62152;52.078;8.414;2023-10-31T20:19:36;99076.03;;;19.32;60.93
56514;BME280;62152;52.078;8.414;2023-10-31T20:23:40;99065.75;;;19.39;60.94
56514;BME280;62152;52.078;8.414;2023-10-31T20:27:41;99082.66;;;19.38;61.29
56514;BME280;62152;52.078;8.414;2023-10-31T20:31:41;99089.72;;;19.39;61.05
56514;BME280;62152;52.078;8.414;2023-10-31T20:35:42;99086.97;;;19.43;60.88
56514;BME280;62152;52.078;8.414;2023-10-31T20:39:45;99092.44;;;19.46;60.94
56514;BME280;62152;52.078;8.414;2023-10-31T20:43:46;99083.81;;;19.44;60.92
56514;BME280;62152;52.078;8.414;2023-10-31T20:47:47;99086.53;;;19.48;60.81
56514;BME280;62152;52.078;8.414;2023-10-31T20:51:48;99089.28;;;19.48;60.94
56514;BME280;62152;52.078;8.414;2023-10-31T20:55:51;99088.50;;;19.51;60.74
56514;BME280;62152;52.078;8.414;2023-10-31T20:59:52;99087.72;;;19.50;60.95
56514;BME280;62152;52.078;8.414;2023-10-31T21:03:53;99089.28;;;19.51;60.94
56514;BME280;62152;52.078;8.414;2023-10-31T21:07:54;99081.03;;;19.51;60.99
56514;BME280;62152;52.078;8.414;2023-10-31T21:11:57;99072.34;;;19.53;60.89
56514;BME280;62152;52.078;8.414;2023-10-31T21:15:58;99069.59;;;19.53;60.76
56514;BME280;62152;52.078;8.414;2023-10-31T21:19:59;99080.63;;;19.53;60.87